createdAt,value
2023-02-13T00:00:21.272Z,16.57
2023-02-13T00:02:48.250Z,16.57
2023-02-13T00:05:15.310Z,17.43
2023-02-13T00:07:42.218Z,15.23
2023-02-13T00:10:09.646Z,17.07
2023-02-13T00:12:36.592Z,16.03
2023-02-13T00:15:04.722Z,14.83
2023-02-13T00:17:32.313Z,13.70
2023-02-13T00:20:02.129Z,13.33
2023-02-13T00:22:29.539Z,14.83
2023-02-13T00:24:56.475Z,12.67
2023-02-13T00:27:23.380Z,12.57
2023-02-13T00:29:50.240Z,12.50
2023-02-13T00:32:17.158Z,13.27
2023-02-13T00:34:44.235Z,12.10
2023-02-13T00:37:11.292Z,11.33
2023-02-13T00:39:38.431Z,10.70
2023-02-13T00:42:05.809Z,10.80
2023-02-13T00:44:33.029Z,13.57
2023-02-13T00:47:01.493Z,12.27
2023-02-13T00:49:28.571Z,12.83
2023-02-13T00:51:55.426Z,16.20
2023-02-13T00:54:22.492Z,14.20
2023-02-13T00:56:49.962Z,16.90
2023-02-13T00:59:17.743Z,14.53
2023-02-13T01:01:45.035Z,15.77
2023-02-13T01:04:11.872Z,16.57
2023-02-13T01:06:38.749Z,18.63
2023-02-13T01:09:06.443Z,19.13
2023-02-13T01:11:35.715Z,19.13
2023-02-13T01:14:02.566Z,18.47
2023-02-13T01:16:29.434Z,18.33
2023-02-13T01:18:56.444Z,19.40
2023-02-13T01:21:24.534Z,21.27
2023-02-13T01:23:53.556Z,19.50
2023-02-13T01:26:23.002Z,19.33
2023-02-13T01:28:59.395Z,19.43
2023-02-13T01:31:26.813Z,20.73
2023-02-13T01:33:57.877Z,20.77
2023-02-13T01:36:25.157Z,20.60
2023-02-13T01:38:56.931Z,18.73
2023-02-13T01:41:25.899Z,18.30
2023-02-13T01:43:55.597Z,21.90
2023-02-13T01:46:33.649Z,19.13
2023-02-13T01:49:15.578Z,23.07
2023-02-13T01:51:43.383Z,13.53
2023-02-13T01:54:15.457Z,20.50
2023-02-13T01:56:52.030Z,16.43
2023-02-13T01:59:26.590Z,20.00
2023-02-13T02:01:54.307Z,18.67
2023-02-13T02:04:32.374Z,22.67
2023-02-13T02:07:06.997Z,14.83
2023-02-13T02:09:38.581Z,16.70
2023-02-13T02:12:20.318Z,17.17
2023-02-13T02:14:49.452Z,15.50
2023-02-13T02:17:18.366Z,16.00
2023-02-13T02:20:04.145Z,19.13
2023-02-13T02:22:49.251Z,16.77
2023-02-13T02:25:19.737Z,18.50
2023-02-13T02:28:12.106Z,17.47
2023-02-13T02:30:43.008Z,16.50
2023-02-13T02:33:36.454Z,16.73
2023-02-13T02:36:03.451Z,18.70
2023-02-13T02:38:59.231Z,18.50
2023-02-13T02:41:53.821Z,13.67
2023-02-13T02:44:21.905Z,12.87
2023-02-13T02:47:27.136Z,15.60
2023-02-13T02:50:09.470Z,12.70
2023-02-13T02:53:13.698Z,12.57
2023-02-13T02:55:57.079Z,12.03
2023-02-13T02:59:02.701Z,16.33
2023-02-13T03:01:52.947Z,11.93
2023-02-13T03:04:47.622Z,14.90
2023-02-13T03:07:17.801Z,20.13
2023-02-13T03:10:08.164Z,17.17
2023-02-13T03:13:21.998Z,12.63
2023-02-13T03:16:11.101Z,16.40
2023-02-13T03:19:04.183Z,13.50
2023-02-13T03:22:11.619Z,13.47
2023-02-13T03:24:59.891Z,14.77
2023-02-13T03:28:03.701Z,10.87
2023-02-13T03:30:36.952Z,12.33
2023-02-13T03:33:32.543Z,13.10
2023-02-13T03:36:36.258Z,11.97
2023-02-13T03:39:14.030Z,12.27
2023-02-13T03:41:52.787Z,13.37
2023-02-13T03:44:31.332Z,11.83
2023-02-13T03:47:02.890Z,14.43
2023-02-13T03:49:56.768Z,11.30
2023-02-13T03:52:35.860Z,11.97
2023-02-13T03:55:31.201Z,11.93
2023-02-13T03:58:21.863Z,12.07
2023-02-13T04:00:54.219Z,10.93
2023-02-13T04:03:48.337Z,11.70
2023-02-13T04:06:26.074Z,11.00
2023-02-13T04:08:53.238Z,10.97
2023-02-13T04:11:37.517Z,12.67
2023-02-13T04:14:27.796Z,13.00
2023-02-13T04:17:03.528Z,12.43
2023-02-13T04:19:32.125Z,12.37
2023-02-13T04:22:01.757Z,11.47
2023-02-13T04:24:29.049Z,10.87
2023-02-13T04:26:56.331Z,10.63
2023-02-13T04:29:24.645Z,10.43
2023-02-13T04:31:52.110Z,11.30
2023-02-13T04:34:19.213Z,11.83
2023-02-13T04:36:46.262Z,11.03
2023-02-13T04:39:13.219Z,10.20
2023-02-13T04:41:40.048Z,10.03
2023-02-13T04:44:07.069Z,11.17
2023-02-13T04:46:33.943Z,13.90
2023-02-13T04:49:00.819Z,12.33
2023-02-13T04:51:27.752Z,10.90
2023-02-13T04:53:54.583Z,8.70
2023-02-13T04:56:21.434Z,10.70
2023-02-13T04:58:48.289Z,10.53
2023-02-13T05:01:16.410Z,10.70
2023-02-13T05:03:43.391Z,10.07
2023-02-13T05:06:10.380Z,9.50
2023-02-13T05:08:37.242Z,8.93
2023-02-13T05:11:04.305Z,9.67
2023-02-13T05:13:31.254Z,8.33
2023-02-13T05:15:58.213Z,9.50
2023-02-13T05:18:26.226Z,8.90
2023-02-13T05:21:11.630Z,7.67
2023-02-13T05:23:38.523Z,13.77
2023-02-13T05:26:05.388Z,12.20
2023-02-13T05:28:50.891Z,11.53
2023-02-13T05:31:17.910Z,17.73
2023-02-13T05:33:44.845Z,14.90
2023-02-13T05:36:11.715Z,13.93
2023-02-13T05:38:38.605Z,12.57
2023-02-13T05:41:05.470Z,11.63
2023-02-13T05:43:32.602Z,10.70
2023-02-13T05:46:07.615Z,10.20
2023-02-13T05:48:35.041Z,9.10
2023-02-13T05:51:02.235Z,9.17
2023-02-13T05:53:29.921Z,8.63
2023-02-13T05:55:57.046Z,7.97
2023-02-13T05:58:24.041Z,7.73
2023-02-13T06:00:50.987Z,7.57
2023-02-13T06:03:17.836Z,7.40
2023-02-13T06:05:44.841Z,8.30
2023-02-13T06:08:11.665Z,8.60
2023-02-13T06:10:38.850Z,9.40
2023-02-13T06:13:05.850Z,7.83
2023-02-13T06:15:32.724Z,8.40
2023-02-13T06:17:59.652Z,9.10
2023-02-13T06:20:26.586Z,8.13
2023-02-13T06:22:53.903Z,8.10
2023-02-13T06:25:21.290Z,8.13
2023-02-13T06:27:48.554Z,7.80
2023-02-13T06:30:16.206Z,7.17
2023-02-13T06:32:43.146Z,7.80
2023-02-13T06:35:10.089Z,9.07
2023-02-13T06:37:37.062Z,6.93
2023-02-13T06:40:04.286Z,7.50
2023-02-13T06:42:31.123Z,8.27
2023-02-13T06:44:58.018Z,8.43
2023-02-13T06:47:24.903Z,8.70
2023-02-13T06:49:51.812Z,7.77
2023-02-13T06:52:18.709Z,8.63
2023-02-13T06:54:47.932Z,8.33
2023-02-13T06:57:15.664Z,9.37
2023-02-13T06:59:42.874Z,10.33
2023-02-13T07:02:11.527Z,10.73
2023-02-13T07:04:38.438Z,11.83
2023-02-13T07:07:05.822Z,11.90
2023-02-13T07:09:33.047Z,12.17
2023-02-13T07:12:03.530Z,12.93
2023-02-13T07:14:30.376Z,13.93
2023-02-13T07:16:57.540Z,13.77
2023-02-13T07:19:24.475Z,14.00
2023-02-13T07:21:51.337Z,13.20
2023-02-13T07:24:18.213Z,14.33
2023-02-13T07:26:45.156Z,13.20
2023-02-13T07:29:12.566Z,14.60
2023-02-13T07:31:40.017Z,14.53
2023-02-13T07:34:07.330Z,14.57
2023-02-13T07:36:34.794Z,13.20
2023-02-13T07:39:01.794Z,20.23
2023-02-13T07:41:28.775Z,14.63
2023-02-13T07:43:55.727Z,14.77
2023-02-13T07:46:22.606Z,15.73
2023-02-13T07:48:51.709Z,13.57
2023-02-13T07:51:18.660Z,14.40
2023-02-13T07:53:45.483Z,15.20
2023-02-13T07:56:12.469Z,15.50
2023-02-13T07:58:41.980Z,14.93
2023-02-13T08:01:11.392Z,15.97
2023-02-13T08:03:38.780Z,16.07
2023-02-13T08:06:06.597Z,15.27
2023-02-13T08:08:34.184Z,16.20
2023-02-13T08:11:42.825Z,15.13
2023-02-13T08:14:09.754Z,15.00
2023-02-13T08:16:36.792Z,14.80
2023-02-13T08:19:03.691Z,15.07
2023-02-13T08:21:31.277Z,14.20
2023-02-13T08:23:58.867Z,13.67
2023-02-13T08:26:25.802Z,13.87
2023-02-13T08:28:52.782Z,15.40
2023-02-13T08:31:20.486Z,13.73
2023-02-13T08:33:47.479Z,10.33
2023-02-13T08:36:14.338Z,11.80
2023-02-13T08:41:08.048Z,7.97
2023-02-13T08:43:34.843Z,8.20
2023-02-13T08:46:01.792Z,8.00
2023-02-13T08:48:29.643Z,8.37
2023-02-13T08:50:56.900Z,9.10
2023-02-13T08:53:23.875Z,8.43
2023-02-13T08:55:55.075Z,8.03
2023-02-13T08:58:22.242Z,7.90
2023-02-13T09:00:49.307Z,7.97
2023-02-13T09:03:16.657Z,6.97
2023-02-13T09:05:43.870Z,6.53
2023-02-13T09:08:13.807Z,6.50
2023-02-13T09:10:43.745Z,6.50
2023-02-13T09:13:10.944Z,6.63
2023-02-13T09:15:41.583Z,7.17
2023-02-13T09:18:08.498Z,6.40
2023-02-13T09:20:36.254Z,7.10
2023-02-13T09:23:03.527Z,6.50
2023-02-13T09:25:30.414Z,6.33
2023-02-13T09:27:57.301Z,5.97
2023-02-13T09:30:24.473Z,6.20
2023-02-13T09:32:53.550Z,5.83
2023-02-13T09:35:21.708Z,5.43
2023-02-13T09:37:48.667Z,5.40
2023-02-13T09:40:25.673Z,5.70
2023-02-13T09:42:53.948Z,5.30
2023-02-13T09:45:22.027Z,5.70
2023-02-13T09:47:50.022Z,5.63
2023-02-13T09:50:25.547Z,5.27
2023-02-13T09:52:54.785Z,5.43
2023-02-13T09:55:27.280Z,5.50
2023-02-13T09:58:21.254Z,5.43
2023-02-13T10:00:59.606Z,5.30
2023-02-13T10:03:34.882Z,5.23
2023-02-13T10:06:51.894Z,5.70
2023-02-13T10:09:37.742Z,4.80
2023-02-13T10:12:20.018Z,5.83
2023-02-13T10:15:34.258Z,4.53
2023-02-13T10:18:10.419Z,5.17
2023-02-13T10:20:43.407Z,4.90
2023-02-13T10:23:18.139Z,5.40
2023-02-13T10:26:17.142Z,5.00
2023-02-13T10:29:12.469Z,5.67
2023-02-13T10:31:41.335Z,5.23
2023-02-13T10:34:15.255Z,4.77
2023-02-13T10:36:45.815Z,5.13
2023-02-13T10:39:26.391Z,4.80
2023-02-13T10:41:54.454Z,4.90
2023-02-13T10:45:02.570Z,4.40
2023-02-13T10:47:54.141Z,4.37
2023-02-13T10:50:57.273Z,4.13
2023-02-13T10:53:40.282Z,4.17
2023-02-13T10:56:30.780Z,3.97
2023-02-13T10:59:18.016Z,4.00
2023-02-13T11:01:45.277Z,4.00
2023-02-13T11:04:15.357Z,4.37
2023-02-13T11:06:46.532Z,4.73
2023-02-13T11:09:14.146Z,4.33
2023-02-13T11:11:43.970Z,8.30
2023-02-13T11:14:13.846Z,5.40
2023-02-13T11:16:49.469Z,6.23
2023-02-13T11:19:37.663Z,4.60
2023-02-13T11:22:13.475Z,6.40
2023-02-13T11:24:42.746Z,5.23
2023-02-13T11:27:13.918Z,6.80
2023-02-13T11:29:59.636Z,4.10
2023-02-13T11:32:29.162Z,4.87
2023-02-13T11:34:56.425Z,4.63
2023-02-13T11:37:30.277Z,6.70
2023-02-13T11:39:59.580Z,5.23
2023-02-13T11:42:31.251Z,4.37
2023-02-13T11:45:06.144Z,4.70
2023-02-13T11:47:36.606Z,5.33
2023-02-13T11:50:05.381Z,5.13
2023-02-13T11:52:35.520Z,4.27
2023-02-13T11:55:24.080Z,5.70
2023-02-13T11:58:03.452Z,4.17
2023-02-13T12:00:40.153Z,8.33
2023-02-13T12:03:26.916Z,5.00
2023-02-13T12:06:03.040Z,4.50
2023-02-13T12:08:31.186Z,4.60
2023-02-13T12:10:59.440Z,3.97
2023-02-13T12:13:38.947Z,4.70
2023-02-13T12:16:25.314Z,4.50
2023-02-13T12:18:56.348Z,6.00
2023-02-13T12:21:43.033Z,4.37
2023-02-13T12:24:22.512Z,4.80
2023-02-13T12:26:57.793Z,4.63
2023-02-13T12:29:38.047Z,4.20
2023-02-13T12:32:32.420Z,4.13
2023-02-13T12:35:20.676Z,4.00
2023-02-13T12:38:25.010Z,5.00
2023-02-13T12:41:27.577Z,5.13
2023-02-13T12:44:26.379Z,4.90
2023-02-13T12:47:03.736Z,5.00
2023-02-13T12:49:47.065Z,4.80
2023-02-13T12:52:28.677Z,4.50
2023-02-13T12:55:24.122Z,5.70
2023-02-13T12:58:16.654Z,6.67
2023-02-13T13:00:48.166Z,5.77
2023-02-13T13:03:35.616Z,6.10
2023-02-13T13:06:21.194Z,6.00
2023-02-13T13:09:00.335Z,5.60
2023-02-13T13:11:46.185Z,5.80
2023-02-13T13:14:43.731Z,7.03
2023-02-13T13:17:28.615Z,5.70
2023-02-13T13:20:24.104Z,5.63
2023-02-13T13:22:56.036Z,5.70
2023-02-13T13:25:42.402Z,6.17
2023-02-13T13:28:17.323Z,6.23
2023-02-13T13:30:45.167Z,6.37
2023-02-13T13:33:20.447Z,6.90
2023-02-13T13:35:53.636Z,6.97
2023-02-13T13:38:32.453Z,6.23
2023-02-13T13:41:11.620Z,6.67
2023-02-13T13:43:56.805Z,6.67
2023-02-13T13:46:38.721Z,6.30
2023-02-13T13:49:54.618Z,6.53
2023-02-13T13:52:25.380Z,6.80
2023-02-13T13:54:52.886Z,6.90
2023-02-13T13:57:21.770Z,8.40
2023-02-13T13:59:51.738Z,7.17
2023-02-13T14:02:18.700Z,7.50
2023-02-13T14:05:26.141Z,7.10
2023-02-13T14:08:03.599Z,7.17
2023-02-13T14:10:30.383Z,6.20
2023-02-13T14:12:57.253Z,7.07
2023-02-13T14:15:44.535Z,6.90
2023-02-13T14:18:14.494Z,6.70
2023-02-13T14:20:50.338Z,6.80
2023-02-13T14:23:26.531Z,6.73
2023-02-13T14:26:18.148Z,6.70
2023-02-13T14:28:51.206Z,7.57
2023-02-13T14:31:23.968Z,6.80
2023-02-13T14:34:01.940Z,6.80
2023-02-13T14:36:38.608Z,6.80
2023-02-13T14:39:30.831Z,7.13
2023-02-13T14:42:00.599Z,7.50
2023-02-13T14:44:32.417Z,6.77
2023-02-13T14:47:03.001Z,7.67
2023-02-13T14:49:34.215Z,7.13
2023-02-13T14:52:05.974Z,6.67
2023-02-13T14:54:39.449Z,7.33
2023-02-13T14:57:27.561Z,7.47
2023-02-13T15:00:08.855Z,8.00
2023-02-13T15:02:48.060Z,8.47
2023-02-13T15:05:20.264Z,8.03
2023-02-13T15:07:52.779Z,7.80
2023-02-13T15:10:28.732Z,8.23
2023-02-13T15:12:59.880Z,8.03
2023-02-13T15:15:30.160Z,8.33
2023-02-13T15:18:08.686Z,8.10
2023-02-13T15:20:39.890Z,8.13
2023-02-13T15:23:07.597Z,8.70
2023-02-13T15:25:38.278Z,9.63
2023-02-13T15:28:17.145Z,8.00
2023-02-13T15:30:54.436Z,7.87
2023-02-13T15:33:23.454Z,8.10
2023-02-13T15:36:07.177Z,7.83
2023-02-13T15:38:39.405Z,8.63
2023-02-13T15:41:11.222Z,7.67
2023-02-13T15:43:42.510Z,8.77
2023-02-13T15:46:25.256Z,8.53
2023-02-13T15:48:57.677Z,8.07
2023-02-13T15:51:27.574Z,8.93
2023-02-13T15:54:03.959Z,8.43
2023-02-13T15:56:31.732Z,8.77
2023-02-13T15:59:00.745Z,10.10
2023-02-13T16:01:28.795Z,8.83
2023-02-13T16:04:08.767Z,9.87
2023-02-13T16:06:36.395Z,11.10
2023-02-13T16:09:06.154Z,12.87
2023-02-13T16:11:40.717Z,11.40
2023-02-13T16:14:29.364Z,10.93
2023-02-13T16:17:16.971Z,8.77
2023-02-13T16:19:56.673Z,9.30
2023-02-13T16:22:37.323Z,8.77
2023-02-13T16:25:30.137Z,8.60
2023-02-13T16:28:00.146Z,8.60
2023-02-13T16:30:37.322Z,9.83
2023-02-13T16:33:15.793Z,9.43
2023-02-13T16:35:49.063Z,8.97
2023-02-13T16:38:32.497Z,8.63
2023-02-13T16:41:17.970Z,9.43
2023-02-13T16:43:49.652Z,9.80
2023-02-13T16:46:19.362Z,10.40
2023-02-13T16:49:01.270Z,9.87
2023-02-13T16:51:38.668Z,10.67
2023-02-13T16:54:11.559Z,11.00
2023-02-13T16:56:49.027Z,9.53
2023-02-13T16:59:30.745Z,10.67
2023-02-13T17:02:12.545Z,11.70
2023-02-13T17:04:40.033Z,11.07
2023-02-13T17:07:16.162Z,10.83
2023-02-13T17:09:43.325Z,9.90
2023-02-13T17:12:18.405Z,10.13
2023-02-13T17:14:45.914Z,10.43
2023-02-13T17:17:16.382Z,9.77
2023-02-13T17:19:44.037Z,10.90
2023-02-13T17:22:23.037Z,11.27
2023-02-13T17:24:49.988Z,9.80
2023-02-13T17:27:16.844Z,11.00
2023-02-13T17:29:43.719Z,10.03
2023-02-13T17:32:19.454Z,10.17
2023-02-13T17:34:49.098Z,10.37
2023-02-13T17:37:24.969Z,10.50
2023-02-13T17:39:52.563Z,10.30
2023-02-13T17:42:28.246Z,10.47
2023-02-13T17:44:57.657Z,10.20
2023-02-13T17:47:25.681Z,9.97
2023-02-13T17:49:59.238Z,10.90
2023-02-13T17:52:31.785Z,9.87
2023-02-13T17:54:58.710Z,10.47
2023-02-13T17:57:25.633Z,10.47
2023-02-13T17:59:52.518Z,10.70
2023-02-13T18:02:24.828Z,11.43
2023-02-13T18:04:51.702Z,10.37
2023-02-13T18:07:20.870Z,11.20
2023-02-13T18:09:47.808Z,10.77
2023-02-13T18:12:17.102Z,11.17
2023-02-13T18:14:44.264Z,9.50
2023-02-13T18:17:11.981Z,10.97
2023-02-13T18:19:39.784Z,10.30
2023-02-13T18:22:07.908Z,11.00
2023-02-13T18:24:36.576Z,10.00
2023-02-13T18:27:03.685Z,10.13
2023-02-13T18:29:30.614Z,11.00
2023-02-13T18:31:57.937Z,10.40
2023-02-13T18:34:25.048Z,10.43
2023-02-13T18:36:51.873Z,10.60
2023-02-13T18:39:18.957Z,10.87
2023-02-13T18:41:46.088Z,10.60
2023-02-13T18:44:28.483Z,10.10
2023-02-13T18:46:56.013Z,11.07
2023-02-13T18:49:23.021Z,11.97
2023-02-13T18:51:50.206Z,10.90
2023-02-13T18:54:18.078Z,10.67
2023-02-13T18:56:45.669Z,11.23
2023-02-13T18:59:12.638Z,10.57
2023-02-13T19:01:39.628Z,11.27
2023-02-13T19:04:06.999Z,9.67
2023-02-13T19:06:34.353Z,9.50
2023-02-13T19:09:01.250Z,10.07
2023-02-13T19:11:28.226Z,10.60
2023-02-13T19:14:00.646Z,10.90
2023-02-13T19:16:29.615Z,11.37
2023-02-13T19:18:59.497Z,11.07
2023-02-13T19:21:30.563Z,11.07
2023-02-13T19:23:57.533Z,10.47
2023-02-13T19:26:27.660Z,10.40
2023-02-13T19:28:56.204Z,11.10
2023-02-13T19:31:29.588Z,11.43
2023-02-13T19:33:56.719Z,10.23
2023-02-13T19:36:25.666Z,11.03
2023-02-13T19:39:01.316Z,10.50
2023-02-13T19:41:29.070Z,10.43
2023-02-13T19:43:56.462Z,10.03
2023-02-13T19:46:31.524Z,10.80
2023-02-13T19:48:58.804Z,9.63
2023-02-13T19:51:27.960Z,10.70
2023-02-13T19:54:06.273Z,14.33
2023-02-13T19:56:36.061Z,13.93
2023-02-13T19:59:03.805Z,11.27
2023-02-13T20:01:31.139Z,10.67
2023-02-13T20:03:58.520Z,11.17
2023-02-13T20:06:31.573Z,9.73
2023-02-13T20:09:01.751Z,10.97
2023-02-13T20:11:29.112Z,9.37
2023-02-13T20:14:00.757Z,10.03
2023-02-13T20:16:32.813Z,11.43
2023-02-13T20:19:01.853Z,12.00
2023-02-13T20:21:28.743Z,12.90
2023-02-13T20:23:55.635Z,12.37
2023-02-13T20:26:22.712Z,12.77
2023-02-13T20:28:49.575Z,14.33
2023-02-13T20:31:19.044Z,12.03
2023-02-13T20:33:47.211Z,11.23
2023-02-13T20:36:16.975Z,10.60
2023-02-13T20:38:44.227Z,11.50
2023-02-13T20:41:13.249Z,12.70
2023-02-13T20:43:40.093Z,12.17
2023-02-13T20:46:07.989Z,11.10
2023-02-13T20:48:36.740Z,10.83
2023-02-13T20:51:07.122Z,11.97
2023-02-13T20:53:34.352Z,10.57
2023-02-13T20:56:13.543Z,11.10
2023-02-13T20:58:41.852Z,11.40
2023-02-13T21:01:17.152Z,11.60
2023-02-13T21:03:44.995Z,12.30
2023-02-13T21:06:12.487Z,11.43
2023-02-13T21:08:42.198Z,12.47
2023-02-13T21:11:09.410Z,13.97
2023-02-13T21:13:36.545Z,14.33
2023-02-13T21:16:11.694Z,13.00
2023-02-13T21:18:39.551Z,14.70
2023-02-13T21:21:07.907Z,13.43
2023-02-13T21:23:35.375Z,13.77
2023-02-13T21:26:07.287Z,14.10
2023-02-13T21:28:34.513Z,12.73
2023-02-13T21:31:37.435Z,14.00
2023-02-13T21:34:07.251Z,13.10
2023-02-13T21:36:36.190Z,13.53
2023-02-13T21:39:04.752Z,13.10
2023-02-13T21:41:31.586Z,13.43
2023-02-13T21:43:58.529Z,13.90
2023-02-13T21:46:30.891Z,13.50
2023-02-13T21:49:00.790Z,13.40
2023-02-13T21:51:30.102Z,13.00
2023-02-13T21:53:57.012Z,13.93
2023-02-13T21:56:29.515Z,13.97
2023-02-13T21:58:57.328Z,13.57
2023-02-13T22:01:28.634Z,14.60
2023-02-13T22:04:00.344Z,14.70
2023-02-13T22:06:29.463Z,14.87
2023-02-13T22:09:06.152Z,14.33
2023-02-13T22:11:34.228Z,13.83
2023-02-13T22:14:03.041Z,14.07
2023-02-13T22:16:31.493Z,15.00
2023-02-13T22:18:59.176Z,14.33
2023-02-13T22:21:27.962Z,13.03
2023-02-13T22:23:55.438Z,12.93
2023-02-13T22:26:26.613Z,13.20
2023-02-13T22:28:55.037Z,12.83
2023-02-13T22:31:25.781Z,13.37
2023-02-13T22:34:09.393Z,12.33
2023-02-13T22:36:41.018Z,12.53
2023-02-13T22:39:09.620Z,13.30
2023-02-13T22:41:37.076Z,11.17
2023-02-13T22:44:04.065Z,11.80
2023-02-13T22:46:32.813Z,14.83
2023-02-13T22:49:00.236Z,13.17
2023-02-13T22:51:30.168Z,13.33
2023-02-13T22:53:58.512Z,11.80
2023-02-13T22:56:27.349Z,12.40
2023-02-13T22:58:54.720Z,12.07
2023-02-13T23:01:23.432Z,13.00
2023-02-13T23:03:51.623Z,11.80
2023-02-13T23:06:19.537Z,11.67
2023-02-13T23:08:49.102Z,11.30
2023-02-13T23:11:36.285Z,11.63
2023-02-13T23:14:04.274Z,11.03
2023-02-13T23:16:54.262Z,13.13
2023-02-13T23:19:21.641Z,11.70
2023-02-13T23:21:48.832Z,12.47
2023-02-13T23:24:15.797Z,11.17
2023-02-13T23:26:42.995Z,10.77
2023-02-13T23:29:10.078Z,10.10
2023-02-13T23:31:37.077Z,10.47
2023-02-13T23:34:04.312Z,11.80
2023-02-13T23:36:31.160Z,10.23
2023-02-13T23:38:58.019Z,10.17
2023-02-13T23:41:24.908Z,10.50
2023-02-13T23:43:51.795Z,11.80
2023-02-13T23:46:18.798Z,11.30
2023-02-13T23:48:46.328Z,10.00
2023-02-13T23:51:13.339Z,10.30
2023-02-13T23:53:40.355Z,12.33
2023-02-13T23:56:07.805Z,11.17
2023-02-13T23:58:34.978Z,11.77
